createdAt,value
2023-06-07T00:00:28.196Z,4.90
2023-06-07T00:02:58.688Z,8.43
2023-06-07T00:05:29.039Z,5.80
2023-06-07T00:07:59.262Z,4.80
2023-06-07T00:10:29.941Z,6.07
2023-06-07T00:13:02.669Z,4.68
2023-06-07T00:15:32.897Z,6.10
2023-06-07T00:18:03.631Z,4.68
2023-06-07T00:20:34.740Z,5.38
2023-06-07T00:23:06.644Z,4.47
2023-06-07T00:25:36.857Z,5.47
2023-06-07T00:28:09.784Z,4.70
2023-06-07T00:30:40.294Z,4.60
2023-06-07T00:33:10.440Z,4.43
2023-06-07T00:35:42.576Z,5.18
2023-06-07T00:38:12.931Z,4.60
2023-06-07T00:40:43.221Z,4.50
2023-06-07T00:43:18.917Z,5.03
2023-06-07T00:45:49.770Z,4.63
2023-06-07T00:48:20.056Z,5.80
2023-06-07T00:50:50.896Z,6.22
2023-06-07T00:53:21.280Z,4.88
2023-06-07T00:55:51.827Z,6.20
2023-06-07T00:58:24.993Z,4.65
2023-06-07T01:00:55.714Z,4.28
2023-06-07T01:03:26.349Z,7.20
2023-06-07T01:05:59.743Z,6.45
2023-06-07T01:08:29.962Z,4.55
2023-06-07T01:11:01.504Z,6.63
2023-06-07T01:13:35.081Z,4.47
2023-06-07T01:16:06.098Z,5.45
2023-06-07T01:18:37.302Z,5.07
2023-06-07T01:21:09.191Z,4.57
2023-06-07T01:23:43.029Z,4.88
2023-06-07T01:26:14.184Z,5.25
2023-06-07T01:28:46.400Z,5.65
2023-06-07T01:31:17.760Z,5.38
2023-06-07T01:33:48.428Z,4.40
2023-06-07T01:36:19.261Z,9.57
2023-06-07T01:38:52.551Z,4.43
2023-06-07T01:41:23.248Z,6.30
2023-06-07T01:43:53.936Z,6.18
2023-06-07T01:46:24.732Z,4.50
2023-06-07T01:48:57.640Z,4.85
2023-06-07T01:51:27.714Z,4.53
2023-06-07T01:54:00.606Z,4.68
2023-06-07T01:56:39.764Z,4.80
2023-06-07T01:59:18.719Z,4.70
2023-06-07T02:01:58.826Z,4.93
2023-06-07T02:04:36.232Z,6.05
2023-06-07T02:07:11.090Z,4.95
2023-06-07T02:09:45.746Z,5.28
2023-06-07T02:12:18.041Z,4.85
2023-06-07T02:14:53.989Z,5.22
2023-06-07T02:17:24.866Z,5.50
2023-06-07T02:19:55.123Z,6.05
2023-06-07T02:22:25.605Z,4.70
2023-06-07T02:25:00.353Z,5.18
2023-06-07T02:27:32.639Z,5.05
2023-06-07T02:30:03.309Z,4.88
2023-06-07T02:32:38.626Z,5.10
2023-06-07T02:35:11.450Z,4.88
2023-06-07T02:37:44.462Z,5.07
2023-06-07T02:40:18.030Z,5.10
2023-06-07T02:42:48.901Z,5.30
2023-06-07T02:45:19.796Z,6.85
2023-06-07T02:47:49.900Z,5.20
2023-06-07T02:50:20.243Z,5.72
2023-06-07T02:52:50.621Z,5.57
2023-06-07T02:55:24.261Z,5.10
2023-06-07T02:57:54.723Z,5.45
2023-06-07T03:00:29.418Z,5.45
2023-06-07T03:03:07.555Z,5.25
2023-06-07T03:05:42.465Z,5.03
2023-06-07T03:08:15.275Z,5.43
2023-06-07T03:10:49.304Z,5.35
2023-06-07T03:13:27.520Z,6.63
2023-06-07T03:15:57.842Z,4.93
2023-06-07T03:18:30.612Z,4.75
2023-06-07T03:21:04.976Z,6.43
2023-06-07T03:23:35.137Z,7.40
2023-06-07T03:26:08.635Z,4.97
2023-06-07T03:28:38.982Z,5.28
2023-06-07T03:31:10.753Z,5.15
2023-06-07T03:33:51.179Z,7.80
2023-06-07T03:36:22.209Z,54.05
2023-06-07T03:38:55.149Z,27.33
2023-06-07T03:41:28.281Z,11.38
2023-06-07T03:44:02.512Z,8.35
2023-06-07T03:46:33.573Z,7.13
2023-06-07T03:49:07.746Z,4.65
2023-06-07T03:51:40.408Z,5.72
2023-06-07T03:54:11.563Z,5.30
2023-06-07T03:56:44.297Z,5.85
2023-06-07T03:59:16.626Z,8.77
2023-06-07T04:01:47.367Z,5.32
2023-06-07T04:04:18.189Z,4.72
2023-06-07T04:06:50.127Z,6.05
2023-06-07T04:09:21.262Z,6.20
2023-06-07T04:11:54.148Z,9.63
2023-06-07T04:14:24.733Z,8.65
2023-06-07T04:16:55.256Z,6.45
2023-06-07T04:19:25.583Z,74.93
2023-06-07T04:21:57.903Z,12.35
2023-06-07T04:24:28.705Z,7.53
2023-06-07T04:27:02.475Z,7.15
2023-06-07T04:29:35.057Z,5.60
2023-06-07T04:32:06.745Z,5.00
2023-06-07T04:34:43.337Z,5.07
2023-06-07T04:37:17.607Z,5.50
2023-06-07T04:39:50.430Z,7.20
2023-06-07T04:42:24.504Z,5.38
2023-06-07T04:44:54.844Z,5.30
2023-06-07T04:47:28.895Z,5.95
2023-06-07T04:50:00.683Z,7.85
2023-06-07T04:52:33.443Z,5.45
2023-06-07T04:55:07.946Z,9.77
2023-06-07T04:57:40.743Z,6.38
2023-06-07T05:00:14.793Z,6.25
2023-06-07T05:02:48.482Z,6.75
2023-06-07T05:05:22.307Z,5.82
2023-06-07T05:07:54.459Z,5.50
2023-06-07T05:10:25.310Z,5.65
2023-06-07T05:12:58.334Z,5.28
2023-06-07T05:15:29.481Z,7.28
2023-06-07T05:18:00.003Z,5.63
2023-06-07T05:20:30.434Z,8.60
2023-06-07T05:23:03.808Z,5.40
2023-06-07T05:25:36.862Z,6.65
2023-06-07T05:28:13.511Z,5.00
2023-06-07T05:30:49.735Z,6.28
2023-06-07T05:33:22.282Z,6.90
2023-06-07T05:35:52.618Z,5.15
2023-06-07T05:38:23.331Z,5.80
2023-06-07T05:40:53.790Z,7.40
2023-06-07T05:43:26.539Z,6.90
2023-06-07T05:45:56.728Z,5.30
2023-06-07T05:48:27.039Z,9.93
2023-06-07T05:50:57.988Z,5.82
2023-06-07T05:53:29.312Z,4.97
2023-06-07T05:55:59.989Z,7.00
2023-06-07T05:58:32.858Z,7.97
2023-06-07T06:01:03.476Z,7.43
2023-06-07T06:03:33.631Z,7.03
2023-06-07T06:06:15.447Z,7.47
2023-06-07T06:08:46.249Z,4.90
2023-06-07T06:11:18.225Z,5.03
2023-06-07T06:13:51.560Z,7.70
2023-06-07T06:16:21.742Z,7.38
2023-06-07T06:18:54.867Z,5.88
2023-06-07T06:21:24.990Z,9.90
2023-06-07T06:23:55.185Z,6.68
2023-06-07T06:26:26.571Z,6.38
2023-06-07T06:28:59.416Z,8.95
2023-06-07T06:31:30.051Z,8.63
2023-06-07T06:34:00.486Z,5.43
2023-06-07T06:36:31.100Z,4.85
2023-06-07T06:39:01.553Z,4.93
2023-06-07T06:41:31.640Z,5.97
2023-06-07T06:44:05.516Z,5.45
2023-06-07T06:46:38.822Z,4.45
2023-06-07T06:49:13.202Z,4.88
2023-06-07T06:51:46.085Z,6.43
2023-06-07T06:54:16.539Z,4.63
2023-06-07T06:56:47.347Z,5.18
2023-06-07T06:59:20.419Z,8.73
2023-06-07T07:01:53.658Z,6.85
2023-06-07T07:04:23.986Z,4.20
2023-06-07T07:06:54.236Z,4.55
2023-06-07T07:09:24.332Z,4.80
2023-06-07T07:11:54.359Z,4.72
2023-06-07T07:14:27.045Z,7.53
2023-06-07T07:16:57.396Z,5.05
2023-06-07T07:19:27.484Z,4.80
2023-06-07T07:21:57.734Z,6.90
2023-06-07T07:24:27.973Z,6.50
2023-06-07T07:26:58.137Z,6.55
2023-06-07T07:29:30.823Z,5.32
2023-06-07T07:32:01.004Z,4.90
2023-06-07T07:34:31.689Z,4.80
2023-06-07T07:37:04.034Z,5.57
2023-06-07T07:39:35.246Z,5.35
2023-06-07T07:42:06.899Z,5.55
2023-06-07T07:44:39.733Z,5.20
2023-06-07T07:47:11.786Z,5.93
2023-06-07T07:49:42.289Z,5.50
2023-06-07T07:52:12.491Z,6.22
2023-06-07T07:54:42.689Z,5.28
2023-06-07T07:57:13.347Z,7.05
2023-06-07T07:59:46.028Z,5.97
2023-06-07T08:02:16.306Z,4.70
2023-06-07T08:04:46.717Z,5.72
2023-06-07T08:07:17.346Z,6.32
2023-06-07T08:09:48.065Z,6.47
2023-06-07T08:12:18.289Z,5.70
2023-06-07T08:14:51.342Z,6.07
2023-06-07T08:17:22.020Z,7.20
2023-06-07T08:19:52.732Z,6.00
2023-06-07T08:22:22.986Z,7.28
2023-06-07T08:24:53.268Z,4.47
2023-06-07T08:27:28.979Z,4.25
2023-06-07T08:30:03.367Z,7.03
2023-06-07T08:32:36.098Z,5.63
2023-06-07T08:35:06.870Z,4.40
2023-06-07T08:37:37.668Z,4.50
2023-06-07T08:40:09.937Z,6.40
2023-06-07T08:42:43.155Z,4.30
2023-06-07T08:45:17.934Z,5.80
2023-06-07T08:47:49.092Z,4.80
2023-06-07T08:50:23.158Z,4.50
2023-06-07T08:52:58.280Z,4.53
2023-06-07T08:55:28.863Z,7.45
2023-06-07T08:57:59.139Z,4.75
2023-06-07T09:00:32.839Z,4.70
2023-06-07T09:03:03.616Z,3.60
2023-06-07T09:05:33.874Z,4.20
2023-06-07T09:08:04.382Z,4.43
2023-06-07T09:10:34.739Z,4.50
2023-06-07T09:13:08.447Z,4.10
2023-06-07T09:15:43.009Z,6.00
2023-06-07T09:18:13.284Z,4.07
2023-06-07T09:20:43.396Z,5.93
2023-06-07T09:23:19.070Z,4.25
2023-06-07T09:25:57.788Z,5.00
2023-06-07T09:28:30.923Z,6.03
2023-06-07T09:31:05.742Z,5.13
2023-06-07T09:33:37.803Z,3.95
2023-06-07T09:36:09.802Z,3.67
2023-06-07T09:38:40.280Z,4.53
2023-06-07T09:41:11.160Z,5.28
2023-06-07T09:43:48.389Z,5.70
2023-06-07T09:46:22.309Z,3.88
2023-06-07T09:48:54.390Z,5.35
2023-06-07T09:51:28.906Z,4.07
2023-06-07T09:54:02.459Z,4.10
2023-06-07T09:56:47.419Z,4.78
2023-06-07T09:59:19.615Z,3.95
2023-06-07T10:01:54.083Z,3.70
2023-06-07T10:04:24.685Z,8.13
2023-06-07T10:06:59.356Z,8.48
2023-06-07T10:09:30.417Z,5.97
2023-06-07T10:12:01.657Z,4.20
2023-06-07T10:14:34.519Z,5.78
2023-06-07T10:17:10.472Z,6.85
2023-06-07T10:19:45.039Z,4.30
2023-06-07T10:22:18.202Z,4.93
2023-06-07T10:24:57.036Z,3.65
2023-06-07T10:27:30.862Z,4.32
2023-06-07T10:30:06.582Z,5.63
2023-06-07T10:32:40.932Z,3.75
2023-06-07T10:35:15.813Z,3.95
2023-06-07T10:37:46.889Z,3.53
2023-06-07T10:40:17.758Z,6.05
2023-06-07T10:42:49.516Z,5.28
2023-06-07T10:45:22.268Z,3.58
2023-06-07T10:47:55.003Z,4.78
2023-06-07T10:50:49.965Z,6.68
2023-06-07T10:53:20.098Z,4.13
2023-06-07T10:55:50.245Z,5.38
2023-06-07T10:58:31.188Z,4.22
2023-06-07T11:01:21.377Z,3.83
2023-06-07T11:03:54.464Z,3.60
2023-06-07T11:06:24.743Z,4.22
2023-06-07T11:09:14.845Z,4.88
2023-06-07T11:11:47.805Z,3.60
2023-06-07T11:14:18.226Z,3.70
2023-06-07T11:16:48.695Z,4.18
2023-06-07T11:19:22.184Z,4.25
2023-06-07T11:22:06.101Z,4.60
2023-06-07T11:24:39.078Z,9.32
2023-06-07T11:27:16.157Z,4.43
2023-06-07T11:29:46.734Z,5.07
2023-06-07T11:32:17.311Z,4.45
2023-06-07T11:35:03.781Z,7.95
2023-06-07T11:37:34.142Z,3.83
2023-06-07T11:40:05.988Z,3.75
2023-06-07T11:42:37.504Z,3.75
2023-06-07T11:45:08.759Z,3.85
2023-06-07T11:47:39.031Z,4.03
2023-06-07T11:50:13.103Z,4.82
2023-06-07T11:52:43.535Z,4.72
2023-06-07T11:55:13.734Z,6.22
2023-06-07T11:57:43.785Z,3.67
2023-06-07T12:00:17.044Z,3.42
2023-06-07T12:02:48.464Z,3.63
2023-06-07T12:05:27.913Z,4.18
2023-06-07T12:07:58.522Z,5.20
2023-06-07T12:10:30.938Z,3.35
2023-06-07T12:13:12.373Z,3.15
2023-06-07T12:15:46.383Z,4.07
2023-06-07T12:18:17.640Z,3.97
2023-06-07T12:20:51.907Z,3.40
2023-06-07T12:23:25.395Z,4.22
2023-06-07T12:26:09.193Z,4.20
2023-06-07T12:28:40.953Z,3.58
2023-06-07T12:31:19.104Z,4.78
2023-06-07T12:33:59.531Z,4.10
2023-06-07T12:36:34.891Z,4.05
2023-06-07T12:39:08.526Z,4.30
2023-06-07T12:41:39.827Z,3.80
2023-06-07T12:44:16.157Z,3.15
2023-06-07T12:46:46.376Z,5.55
2023-06-07T12:49:16.910Z,3.60
2023-06-07T12:51:49.827Z,3.53
2023-06-07T12:54:20.246Z,4.32
2023-06-07T12:56:50.356Z,4.03
2023-06-07T12:59:20.748Z,5.47
2023-06-07T13:01:51.052Z,3.47
2023-06-07T13:04:21.267Z,4.38
2023-06-07T13:06:54.048Z,5.00
2023-06-07T13:09:25.679Z,5.43
2023-06-07T13:11:55.905Z,4.18
2023-06-07T13:14:26.698Z,5.45
2023-06-07T13:16:56.923Z,3.63
2023-06-07T13:19:27.191Z,6.20
2023-06-07T13:21:59.908Z,4.18
2023-06-07T13:24:30.111Z,4.55
2023-06-07T13:27:00.723Z,5.13
2023-06-07T13:29:31.037Z,5.35
2023-06-07T13:32:01.287Z,178.82
2023-06-07T13:34:31.591Z,22.83
2023-06-07T13:37:05.001Z,56.60
2023-06-07T13:39:35.790Z,122.43
2023-06-07T13:42:06.868Z,96.15
2023-06-07T13:44:45.116Z,16.48
2023-06-07T13:47:15.342Z,145.30
2023-06-07T13:49:45.933Z,106.85
2023-06-07T13:52:19.064Z,180.38
2023-06-07T13:54:50.520Z,6.70
2023-06-07T13:57:21.356Z,59.05
2023-06-07T13:59:51.500Z,63.50
2023-06-07T14:02:22.143Z,100.78
2023-06-07T14:04:52.652Z,215.25
2023-06-07T14:07:25.412Z,31.45
2023-06-07T14:09:55.541Z,75.40
2023-06-07T14:12:26.013Z,34.83
2023-06-07T14:14:56.076Z,204.95
2023-06-07T14:17:26.291Z,70.45
2023-06-07T14:19:56.367Z,62.80
2023-06-07T14:22:29.140Z,465.63
2023-06-07T14:24:59.320Z,253.25
2023-06-07T14:27:29.424Z,83.82
2023-06-07T14:29:59.520Z,94.35
2023-06-07T14:32:31.125Z,139.40
2023-06-07T14:35:01.225Z,40.28
2023-06-07T14:37:34.009Z,33.65
2023-06-07T14:40:04.451Z,75.75
2023-06-07T14:42:34.680Z,22.08
2023-06-07T14:45:05.126Z,8.88
2023-06-07T14:47:35.552Z,41.13
2023-06-07T14:50:05.809Z,50.35
2023-06-07T14:52:38.758Z,23.88
2023-06-07T14:55:09.783Z,21.77
2023-06-07T14:57:40.939Z,24.60
2023-06-07T15:00:13.121Z,11.07
2023-06-07T15:02:43.571Z,20.40
2023-06-07T15:05:14.290Z,5.50
2023-06-07T15:07:47.054Z,29.58
2023-06-07T15:10:21.216Z,111.07
2023-06-07T15:12:52.706Z,36.42
2023-06-07T15:15:30.033Z,13.60
2023-06-07T15:18:03.443Z,11.18
2023-06-07T15:20:34.015Z,25.50
2023-06-07T15:23:07.221Z,13.55
2023-06-07T15:25:38.861Z,34.88
2023-06-07T15:28:10.246Z,17.88
2023-06-07T15:30:40.347Z,9.80
2023-06-07T15:33:14.153Z,5.35
2023-06-07T15:35:44.400Z,8.18
2023-06-07T15:38:25.606Z,8.82
2023-06-07T15:40:55.971Z,10.15
2023-06-07T15:43:26.197Z,5.50
2023-06-07T15:45:56.332Z,5.97
2023-06-07T15:48:26.854Z,23.63
2023-06-07T15:50:57.251Z,5.35
2023-06-07T15:53:32.650Z,6.53
2023-06-07T15:56:06.048Z,5.78
2023-06-07T15:58:37.750Z,6.65
2023-06-07T16:01:08.265Z,8.88
2023-06-07T16:03:54.288Z,7.07
2023-06-07T16:06:26.293Z,6.65
2023-06-07T16:09:02.092Z,6.82
2023-06-07T16:11:32.313Z,6.18
2023-06-07T16:14:03.014Z,6.60
2023-06-07T16:16:33.170Z,7.35
2023-06-07T16:19:03.897Z,6.03
2023-06-07T16:21:34.489Z,6.43
2023-06-07T16:24:11.287Z,6.40
2023-06-07T16:26:41.515Z,5.28
2023-06-07T16:29:11.621Z,6.78
2023-06-07T16:31:41.777Z,6.07
2023-06-07T16:34:12.111Z,8.73
2023-06-07T16:36:42.271Z,7.55
2023-06-07T16:39:15.080Z,10.00
2023-06-07T16:41:45.420Z,6.88
2023-06-07T16:44:16.060Z,7.15
2023-06-07T16:46:47.152Z,6.22
2023-06-07T16:49:17.562Z,5.35
2023-06-07T16:51:47.972Z,60.40
2023-06-07T16:54:20.735Z,6.72
2023-06-07T16:56:50.893Z,6.63
2023-06-07T16:59:20.998Z,5.80
2023-06-07T17:01:51.328Z,7.25
2023-06-07T17:04:22.113Z,5.63
2023-06-07T17:06:52.865Z,6.13
2023-06-07T17:09:27.247Z,7.93
2023-06-07T17:11:57.645Z,6.90
2023-06-07T17:14:27.813Z,5.70
2023-06-07T17:16:57.986Z,8.73
2023-06-07T17:19:28.157Z,6.90
2023-06-07T17:21:58.288Z,8.30
2023-06-07T17:24:31.664Z,7.97
2023-06-07T17:27:02.151Z,29.00
2023-06-07T17:29:32.435Z,170.80
2023-06-07T17:32:02.878Z,179.40
2023-06-07T17:34:33.396Z,77.30
2023-06-07T17:37:06.680Z,712.38
2023-06-07T17:39:39.774Z,335.65
2023-06-07T17:42:10.303Z,512.03
2023-06-07T17:44:43.704Z,266.33
2023-06-07T17:47:16.900Z,514.42
2023-06-07T17:49:47.410Z,766.58
2023-06-07T17:52:22.876Z,212.75
2023-06-07T17:54:56.638Z,95.70
2023-06-07T17:57:26.980Z,43.50
2023-06-07T18:00:00.448Z,295.05
2023-06-07T18:02:30.854Z,24.52
2023-06-07T18:05:01.203Z,52.22
2023-06-07T18:07:31.801Z,43.08
2023-06-07T18:10:05.464Z,8.10
2023-06-07T18:12:40.118Z,165.25
2023-06-07T18:15:13.864Z,26.88
2023-06-07T18:17:44.635Z,59.63
2023-06-07T18:20:30.396Z,22.65
2023-06-07T18:23:00.640Z,61.55
2023-06-07T18:25:33.576Z,9.90
2023-06-07T18:28:05.205Z,42.72
2023-06-07T18:33:38.605Z,20.60
2023-06-07T18:36:10.805Z,84.85
2023-06-07T18:38:41.056Z,34.40
2023-06-07T18:41:14.084Z,19.58
2023-06-07T18:43:44.294Z,10.27
2023-06-07T18:46:15.391Z,24.73
2023-06-07T18:48:47.699Z,12.90
2023-06-07T18:51:17.874Z,13.98
2023-06-07T18:53:50.851Z,6.45
2023-06-07T18:56:26.091Z,5.65
2023-06-07T18:58:58.682Z,29.02
2023-06-07T19:01:42.361Z,11.05
2023-06-07T19:04:12.968Z,7.70
2023-06-07T19:06:43.201Z,10.98
2023-06-07T19:09:13.566Z,13.70
2023-06-07T19:11:46.455Z,10.07
2023-06-07T19:14:17.602Z,13.25
2023-06-07T19:16:50.332Z,38.53
2023-06-07T19:19:20.500Z,13.95
2023-06-07T19:21:50.755Z,6.45
2023-06-07T19:24:38.650Z,7.25
2023-06-07T19:27:24.815Z,9.30
2023-06-07T19:29:55.039Z,8.65
2023-06-07T19:32:27.600Z,9.07
2023-06-07T19:34:58.048Z,8.13
2023-06-07T19:37:28.985Z,5.80
2023-06-07T19:39:59.421Z,6.95
2023-06-07T19:42:33.052Z,7.75
2023-06-07T19:45:03.469Z,9.88
2023-06-07T19:47:35.210Z,6.45
2023-06-07T19:50:10.746Z,6.70
2023-06-07T19:53:11.793Z,5.35
2023-06-07T19:55:47.169Z,5.80
2023-06-07T19:58:36.690Z,6.20
2023-06-07T20:01:07.329Z,5.28
2023-06-07T20:03:37.625Z,7.20
2023-06-07T20:06:09.246Z,6.78
2023-06-07T20:08:42.814Z,6.18
2023-06-07T20:11:19.170Z,6.70
2023-06-07T20:13:54.757Z,7.47
2023-06-07T20:16:25.651Z,6.50
2023-06-07T20:19:10.084Z,6.00
2023-06-07T20:21:41.249Z,9.38
2023-06-07T20:24:22.535Z,6.35
2023-06-07T20:26:53.005Z,5.60
2023-06-07T20:29:26.993Z,7.60
2023-06-07T20:31:59.972Z,7.40
2023-06-07T20:34:30.927Z,7.90
2023-06-07T20:37:14.157Z,5.75
2023-06-07T20:39:55.181Z,5.80
2023-06-07T20:42:30.229Z,10.00
2023-06-07T20:45:13.818Z,6.97
2023-06-07T20:47:48.757Z,5.57
2023-06-07T20:50:54.590Z,7.32
2023-06-07T20:53:28.165Z,6.57
2023-06-07T20:55:58.549Z,6.45
2023-06-07T20:58:39.515Z,6.55
2023-06-07T21:01:14.910Z,6.45
2023-06-07T21:03:51.995Z,6.18
2023-06-07T21:06:23.423Z,5.97
2023-06-07T21:08:53.786Z,6.97
2023-06-07T21:11:30.137Z,5.90
2023-06-07T21:14:00.832Z,6.72
2023-06-07T21:16:36.727Z,7.10
2023-06-07T21:19:07.280Z,6.00
2023-06-07T21:21:40.527Z,6.30
2023-06-07T21:24:11.281Z,6.53
2023-06-07T21:26:49.007Z,6.90
2023-06-07T21:29:19.334Z,6.72
2023-06-07T21:31:54.332Z,6.65
2023-06-07T21:34:24.604Z,10.57
2023-06-07T21:36:54.829Z,6.60
2023-06-07T21:39:25.250Z,6.18
2023-06-07T21:41:56.912Z,6.47
2023-06-07T21:44:27.219Z,6.00
2023-06-07T21:47:00.401Z,11.35
2023-06-07T21:49:30.855Z,12.00
2023-06-07T21:52:01.221Z,8.43
2023-06-07T21:54:31.573Z,8.13
2023-06-07T21:57:04.841Z,7.93
2023-06-07T21:59:34.986Z,7.68
2023-06-07T22:02:09.317Z,8.02
2023-06-07T22:04:39.852Z,7.25
2023-06-07T22:07:10.977Z,6.45
2023-06-07T22:09:41.150Z,5.88
2023-06-07T22:12:15.983Z,9.00
2023-06-07T22:14:47.120Z,6.97
2023-06-07T22:17:20.800Z,9.43
2023-06-07T22:19:50.946Z,5.80
2023-06-07T22:22:21.127Z,6.82
2023-06-07T22:24:51.552Z,7.50
2023-06-07T22:27:21.748Z,6.15
2023-06-07T22:29:54.510Z,8.25
2023-06-07T22:32:30.488Z,6.47
2023-06-07T22:35:05.634Z,8.93
2023-06-07T22:37:36.801Z,6.43
2023-06-07T22:40:11.829Z,6.18
2023-06-07T22:42:42.131Z,6.53
2023-06-07T22:45:15.451Z,8.18
2023-06-07T22:47:49.962Z,6.72
2023-06-07T22:50:21.911Z,6.05
2023-06-07T22:52:53.930Z,6.22
2023-06-07T22:55:23.999Z,7.18
2023-06-07T22:57:54.121Z,7.78
2023-06-07T23:00:24.889Z,8.00
2023-06-07T23:02:58.650Z,6.68
2023-06-07T23:05:30.242Z,8.98
2023-06-07T23:08:00.945Z,6.68
2023-06-07T23:10:36.806Z,7.07
2023-06-07T23:13:10.692Z,5.80
2023-06-07T23:15:43.411Z,6.35
2023-06-07T23:18:19.033Z,6.65
2023-06-07T23:20:49.853Z,5.82
2023-06-07T23:23:21.011Z,5.93
2023-06-07T23:25:51.901Z,7.28
2023-06-07T23:28:22.089Z,6.00
2023-06-07T23:30:52.471Z,6.05
2023-06-07T23:33:26.160Z,5.80
2023-06-07T23:35:57.743Z,8.32
2023-06-07T23:38:27.981Z,5.88
2023-06-07T23:40:58.163Z,7.95
2023-06-07T23:43:28.501Z,7.13
2023-06-07T23:45:59.055Z,6.22
2023-06-07T23:48:31.783Z,6.68
2023-06-07T23:51:02.016Z,5.68
2023-06-07T23:53:32.132Z,6.63
2023-06-07T23:56:02.317Z,7.57
2023-06-07T23:58:32.907Z,7.55
